Nikishka, Alaska
Current Conditions -  °F | °C
As of 3:53 PM on Sunday 23 Nov 2014 (Local Time) from PAEN Reporting Station
Broken Clouds Broken Clouds  
Wind Chill: 22°   Ceiling: 8500
Heat Index: 31°   Visibility: 10mi
Dew Point: 28°   Wind: 10mph
Humidity: 89%   Direction: 30°NNE
Pressure: 29.46"   Gusts: NA
Location:  60.7377°N, 151.324°W
Report Text: PAEN 240053Z AUTO 03009KT 10SM BKN085 M01/M02 A2946 RMK AO2 SLP979 T10061022 TSNO
Loading
Personal Weather Stations






























Interactive Weather Map New forecast layout! Learn more

10-Day Weather Forecast

Advertisements
Track Severe Weather on mobile